sensor_id;sensor_type;location;lat;lon;timestamp;temperature;humidity
780;DHT22;373;49.342;8.146;2022-11-02T00:02:25;11.70;99.90
780;DHT22;373;49.342;8.146;2022-11-02T00:04:53;11.60;99.90
780;DHT22;373;49.342;8.146;2022-11-02T00:07:20;11.10;99.90
780;DHT22;373;49.342;8.146;2022-11-02T00:09:47;11.00;99.90
780;DHT22;373;49.342;8.146;2022-11-02T00:12:14;10.90;99.90
780;DHT22;373;49.342;8.146;2022-11-02T00:14:41;11.00;99.90
780;DHT22;373;49.342;8.146;2022-11-02T00:17:08;11.00;99.90
780;DHT22;373;49.342;8.146;2022-11-02T00:19:36;11.00;99.90
780;DHT22;373;49.342;8.146;2022-11-02T00:22:04;11.00;99.90
780;DHT22;373;49.342;8.146;2022-11-02T00:24:31;11.30;99.90
780;DHT22;373;49.342;8.146;2022-11-02T00:26:59;11.20;99.90
780;DHT22;373;49.342;8.146;2022-11-02T00:29:27;11.20;99.90
780;DHT22;373;49.342;8.146;2022-11-02T00:31:54;11.10;99.90
780;DHT22;373;49.342;8.146;2022-11-02T00:34:21;11.20;99.90
780;DHT22;373;49.342;8.146;2022-11-02T00:36:50;11.00;99.90
780;DHT22;373;49.342;8.146;2022-11-02T00:39:17;11.00;99.90
780;DHT22;373;49.342;8.146;2022-11-02T00:41:44;11.00;99.90
780;DHT22;373;49.342;8.146;2022-11-02T00:44:11;10.80;99.90
780;DHT22;373;49.342;8.146;2022-11-02T00:46:38;10.70;99.90
780;DHT22;373;49.342;8.146;2022-11-02T00:49:05;10.40;99.90
780;DHT22;373;49.342;8.146;2022-11-02T00:51:34;10.20;99.90
780;DHT22;373;49.342;8.146;2022-11-02T00:54:02;10.20;99.90
780;DHT22;373;49.342;8.146;2022-11-02T00:56:31;10.00;99.90
780;DHT22;373;49.342;8.146;2022-11-02T00:58:59;10.10;99.90
780;DHT22;373;49.342;8.146;2022-11-02T01:01:26;9.90;99.90
780;DHT22;373;49.342;8.146;2022-11-02T01:03:55;10.00;99.90
780;DHT22;373;49.342;8.146;2022-11-02T01:06:22;10.00;99.90
780;DHT22;373;49.342;8.146;2022-11-02T01:08:50;10.00;99.90
780;DHT22;373;49.342;8.146;2022-11-02T01:11:20;9.90;99.90
780;DHT22;373;49.342;8.146;2022-11-02T01:13:49;9.90;99.90
780;DHT22;373;49.342;8.146;2022-11-02T01:16:17;9.70;99.90
780;DHT22;373;49.342;8.146;2022-11-02T01:18:44;9.60;99.90
780;DHT22;373;49.342;8.146;2022-11-02T01:21:11;9.60;99.90
780;DHT22;373;49.342;8.146;2022-11-02T01:23:39;9.60;99.90
780;DHT22;373;49.342;8.146;2022-11-02T01:26:07;9.80;99.90
780;DHT22;373;49.342;8.146;2022-11-02T01:28:36;9.90;99.90
780;DHT22;373;49.342;8.146;2022-11-02T01:31:04;9.70;99.90
780;DHT22;373;49.342;8.146;2022-11-02T01:33:33;9.70;99.90
780;DHT22;373;49.342;8.146;2022-11-02T01:36:03;9.80;99.90
780;DHT22;373;49.342;8.146;2022-11-02T01:38:31;9.70;99.90
780;DHT22;373;49.342;8.146;2022-11-02T01:40:58;9.80;99.90
780;DHT22;373;49.342;8.146;2022-11-02T01:43:27;10.00;99.90
780;DHT22;373;49.342;8.146;2022-11-02T01:46:00;10.10;99.90
780;DHT22;373;49.342;8.146;2022-11-02T01:48:31;10.00;99.90
780;DHT22;373;49.342;8.146;2022-11-02T01:51:01;9.90;99.90
780;DHT22;373;49.342;8.146;2022-11-02T01:53:29;9.70;99.90
780;DHT22;373;49.342;8.146;2022-11-02T01:55:57;9.60;99.90
780;DHT22;373;49.342;8.146;2022-11-02T01:58:25;9.60;99.90
780;DHT22;373;49.342;8.146;2022-11-02T02:00:55;9.60;99.90
780;DHT22;373;49.342;8.146;2022-11-02T02:03:23;9.50;99.90
780;DHT22;373;49.342;8.146;2022-11-02T02:05:53;9.40;99.90
780;DHT22;373;49.342;8.146;2022-11-02T02:08:23;9.60;99.90
780;DHT22;373;49.342;8.146;2022-11-02T02:10:53;9.60;99.90
780;DHT22;373;49.342;8.146;2022-11-02T02:13:21;9.30;99.90
780;DHT22;373;49.342;8.146;2022-11-02T02:15:57;9.30;99.90
780;DHT22;373;49.342;8.146;2022-11-02T02:18:30;9.30;99.90
780;DHT22;373;49.342;8.146;2022-11-02T02:21:11;9.40;99.90
780;DHT22;373;49.342;8.146;2022-11-02T02:24:05;9.40;99.90
780;DHT22;373;49.342;8.146;2022-11-02T02:26:58;9.40;99.90
780;DHT22;373;49.342;8.146;2022-11-02T02:29:32;9.60;99.90
780;DHT22;373;49.342;8.146;2022-11-02T02:32:04;10.00;99.90
780;DHT22;373;49.342;8.146;2022-11-02T02:34:56;10.10;99.90
780;DHT22;373;49.342;8.146;2022-11-02T02:37:28;10.20;99.90
780;DHT22;373;49.342;8.146;2022-11-02T02:40:03;10.30;99.90
780;DHT22;373;49.342;8.146;2022-11-02T02:42:41;10.30;99.90
780;DHT22;373;49.342;8.146;2022-11-02T02:45:16;10.00;99.90
780;DHT22;373;49.342;8.146;2022-11-02T02:47:54;9.90;99.90
780;DHT22;373;49.342;8.146;2022-11-02T02:50:27;10.10;99.90
780;DHT22;373;49.342;8.146;2022-11-02T02:52:57;10.30;99.90
780;DHT22;373;49.342;8.146;2022-11-02T02:55:30;10.40;99.90
780;DHT22;373;49.342;8.146;2022-11-02T02:58:00;10.60;99.90
780;DHT22;373;49.342;8.146;2022-11-02T03:00:32;10.70;99.90
780;DHT22;373;49.342;8.146;2022-11-02T03:03:04;10.80;99.90
780;DHT22;373;49.342;8.146;2022-11-02T03:05:33;11.00;99.90
780;DHT22;373;49.342;8.146;2022-11-02T03:08:06;11.00;99.90
780;DHT22;373;49.342;8.146;2022-11-02T03:10:43;10.80;99.90
780;DHT22;373;49.342;8.146;2022-11-02T03:13:29;10.50;99.90
780;DHT22;373;49.342;8.146;2022-11-02T03:16:06;10.80;99.90
780;DHT22;373;49.342;8.146;2022-11-02T03:18:46;10.70;99.90
780;DHT22;373;49.342;8.146;2022-11-02T03:21:23;10.50;99.90
780;DHT22;373;49.342;8.146;2022-11-02T03:23:59;10.50;99.90
780;DHT22;373;49.342;8.146;2022-11-02T03:26:46;10.10;99.90
780;DHT22;373;49.342;8.146;2022-11-02T03:29:18;9.90;99.90
780;DHT22;373;49.342;8.146;2022-11-02T03:31:54;10.00;99.90
780;DHT22;373;49.342;8.146;2022-11-02T03:34:25;10.00;99.90
780;DHT22;373;49.342;8.146;2022-11-02T03:36:59;9.90;99.90
780;DHT22;373;49.342;8.146;2022-11-02T03:39:34;9.90;99.90
780;DHT22;373;49.342;8.146;2022-11-02T03:42:03;9.90;99.90
780;DHT22;373;49.342;8.146;2022-11-02T03:44:37;10.40;99.90
780;DHT22;373;49.342;8.146;2022-11-02T03:47:10;10.70;99.90
780;DHT22;373;49.342;8.146;2022-11-02T03:49:40;11.20;99.90
780;DHT22;373;49.342;8.146;2022-11-02T03:52:11;12.10;99.90
780;DHT22;373;49.342;8.146;2022-11-02T03:54:43;12.50;99.90
780;DHT22;373;49.342;8.146;2022-11-02T03:57:20;12.70;99.90
780;DHT22;373;49.342;8.146;2022-11-02T03:59:50;12.80;99.90
780;DHT22;373;49.342;8.146;2022-11-02T04:02:19;13.00;99.90
780;DHT22;373;49.342;8.146;2022-11-02T04:04:51;13.00;99.90
780;DHT22;373;49.342;8.146;2022-11-02T04:07:26;13.10;99.90
780;DHT22;373;49.342;8.146;2022-11-02T04:10:16;13.20;99.90
780;DHT22;373;49.342;8.146;2022-11-02T04:12:43;13.20;99.90
780;DHT22;373;49.342;8.146;2022-11-02T04:15:33;13.30;99.90
780;DHT22;373;49.342;8.146;2022-11-02T04:18:02;13.30;99.90
780;DHT22;373;49.342;8.146;2022-11-02T04:20:48;13.40;99.90
780;DHT22;373;49.342;8.146;2022-11-02T04:23:16;13.50;99.90
780;DHT22;373;49.342;8.146;2022-11-02T04:26:01;13.40;99.90
780;DHT22;373;49.342;8.146;2022-11-02T04:28:34;13.50;99.90
780;DHT22;373;49.342;8.146;2022-11-02T04:31:01;13.50;99.90
780;DHT22;373;49.342;8.146;2022-11-02T04:33:35;13.50;99.90
780;DHT22;373;49.342;8.146;2022-11-02T04:36:09;13.60;99.90
780;DHT22;373;49.342;8.146;2022-11-02T04:38:38;13.60;99.90
780;DHT22;373;49.342;8.146;2022-11-02T04:41:24;13.60;99.90
780;DHT22;373;49.342;8.146;2022-11-02T04:44:26;13.60;99.90
780;DHT22;373;49.342;8.146;2022-11-02T04:47:14;13.60;99.90
780;DHT22;373;49.342;8.146;2022-11-02T04:49:42;13.60;99.90
780;DHT22;373;49.342;8.146;2022-11-02T04:52:13;13.40;99.90
780;DHT22;373;49.342;8.146;2022-11-02T04:54:46;13.40;99.90
780;DHT22;373;49.342;8.146;2022-11-02T04:57:13;13.30;99.90
780;DHT22;373;49.342;8.146;2022-11-02T04:59:40;13.30;99.90
780;DHT22;373;49.342;8.146;2022-11-02T05:02:07;13.40;99.90
780;DHT22;373;49.342;8.146;2022-11-02T05:04:35;13.40;99.90
780;DHT22;373;49.342;8.146;2022-11-02T05:07:09;13.40;99.90
780;DHT22;373;49.342;8.146;2022-11-02T05:09:39;13.40;99.90
780;DHT22;373;49.342;8.146;2022-11-02T05:12:08;13.40;99.90
780;DHT22;373;49.342;8.146;2022-11-02T05:14:36;13.40;99.90
780;DHT22;373;49.342;8.146;2022-11-02T05:17:03;13.40;99.90
780;DHT22;373;49.342;8.146;2022-11-02T05:19:32;13.40;99.90
780;DHT22;373;49.342;8.146;2022-11-02T05:22:00;13.30;99.90
780;DHT22;373;49.342;8.146;2022-11-02T05:24:31;13.30;99.90
780;DHT22;373;49.342;8.146;2022-11-02T05:27:00;13.30;99.90
780;DHT22;373;49.342;8.146;2022-11-02T05:29:32;13.30;99.90
780;DHT22;373;49.342;8.146;2022-11-02T05:31:59;13.40;99.90
780;DHT22;373;49.342;8.146;2022-11-02T05:34:26;13.20;99.90
780;DHT22;373;49.342;8.146;2022-11-02T05:36:54;13.20;99.90
780;DHT22;373;49.342;8.146;2022-11-02T05:39:21;13.30;99.90
780;DHT22;373;49.342;8.146;2022-11-02T05:41:50;13.20;99.90
780;DHT22;373;49.342;8.146;2022-11-02T05:44:18;13.30;99.90
780;DHT22;373;49.342;8.146;2022-11-02T05:46:45;13.30;99.90
780;DHT22;373;49.342;8.146;2022-11-02T05:49:12;13.30;99.90
780;DHT22;373;49.342;8.146;2022-11-02T05:51:39;13.20;99.90
780;DHT22;373;49.342;8.146;2022-11-02T05:54:06;13.30;99.90
780;DHT22;373;49.342;8.146;2022-11-02T05:56:33;13.20;99.90
780;DHT22;373;49.342;8.146;2022-11-02T05:59:02;13.30;99.90
780;DHT22;373;49.342;8.146;2022-11-02T06:01:29;13.30;99.90
780;DHT22;373;49.342;8.146;2022-11-02T06:03:56;13.30;99.90
780;DHT22;373;49.342;8.146;2022-11-02T06:06:23;13.30;99.90
780;DHT22;373;49.342;8.146;2022-11-02T06:08:51;13.30;99.90
780;DHT22;373;49.342;8.146;2022-11-02T06:11:18;13.30;99.90
780;DHT22;373;49.342;8.146;2022-11-02T06:13:48;13.40;99.90
780;DHT22;373;49.342;8.146;2022-11-02T06:16:17;13.40;99.90
780;DHT22;373;49.342;8.146;2022-11-02T06:18:44;13.50;99.90
780;DHT22;373;49.342;8.146;2022-11-02T06:21:11;13.50;99.90
780;DHT22;373;49.342;8.146;2022-11-02T06:23:38;13.60;99.90
780;DHT22;373;49.342;8.146;2022-11-02T06:26:05;13.60;99.90
780;DHT22;373;49.342;8.146;2022-11-02T06:28:32;13.70;99.90
780;DHT22;373;49.342;8.146;2022-11-02T06:31:00;13.80;99.90
780;DHT22;373;49.342;8.146;2022-11-02T06:33:29;13.60;99.90
780;DHT22;373;49.342;8.146;2022-11-02T06:35:56;13.70;99.90
780;DHT22;373;49.342;8.146;2022-11-02T06:38:23;13.50;99.90
780;DHT22;373;49.342;8.146;2022-11-02T06:40:55;13.60;99.90
780;DHT22;373;49.342;8.146;2022-11-02T06:43:22;13.50;99.90
780;DHT22;373;49.342;8.146;2022-11-02T06:45:52;13.60;99.90
780;DHT22;373;49.342;8.146;2022-11-02T06:48:21;13.50;99.90
780;DHT22;373;49.342;8.146;2022-11-02T06:50:50;13.70;99.90
780;DHT22;373;49.342;8.146;2022-11-02T06:53:18;13.70;99.90
780;DHT22;373;49.342;8.146;2022-11-02T06:55:50;13.60;99.90
780;DHT22;373;49.342;8.146;2022-11-02T06:58:17;13.80;99.90
780;DHT22;373;49.342;8.146;2022-11-02T07:00:44;14.00;99.90
780;DHT22;373;49.342;8.146;2022-11-02T07:03:12;14.10;99.90
780;DHT22;373;49.342;8.146;2022-11-02T07:05:39;14.00;99.90
780;DHT22;373;49.342;8.146;2022-11-02T07:08:07;14.10;99.90
780;DHT22;373;49.342;8.146;2022-11-02T07:10:34;14.40;99.90
780;DHT22;373;49.342;8.146;2022-11-02T07:13:01;14.50;99.90
780;DHT22;373;49.342;8.146;2022-11-02T07:15:29;14.40;99.90
780;DHT22;373;49.342;8.146;2022-11-02T07:17:56;14.30;99.90
780;DHT22;373;49.342;8.146;2022-11-02T07:20:23;14.30;99.90
780;DHT22;373;49.342;8.146;2022-11-02T07:22:53;13.90;99.90
780;DHT22;373;49.342;8.146;2022-11-02T07:25:22;13.90;99.90
780;DHT22;373;49.342;8.146;2022-11-02T07:27:49;14.40;99.90
780;DHT22;373;49.342;8.146;2022-11-02T07:30:17;14.70;99.90
780;DHT22;373;49.342;8.146;2022-11-02T07:32:45;14.30;99.90
780;DHT22;373;49.342;8.146;2022-11-02T07:35:13;14.10;99.90
780;DHT22;373;49.342;8.146;2022-11-02T07:37:41;14.50;99.90
780;DHT22;373;49.342;8.146;2022-11-02T07:40:10;14.70;99.90
780;DHT22;373;49.342;8.146;2022-11-02T07:42:44;15.10;98.90
780;DHT22;373;49.342;8.146;2022-11-02T07:45:12;15.20;98.70
780;DHT22;373;49.342;8.146;2022-11-02T07:47:43;14.90;98.70
780;DHT22;373;49.342;8.146;2022-11-02T07:50:10;15.20;98.50
780;DHT22;373;49.342;8.146;2022-11-02T07:52:45;15.30;98.40
780;DHT22;373;49.342;8.146;2022-11-02T07:55:13;15.30;97.50
780;DHT22;373;49.342;8.146;2022-11-02T07:57:40;15.00;97.90
780;DHT22;373;49.342;8.146;2022-11-02T08:00:10;14.80;98.90
780;DHT22;373;49.342;8.146;2022-11-02T08:02:38;15.00;99.60
780;DHT22;373;49.342;8.146;2022-11-02T08:05:05;15.60;97.70
780;DHT22;373;49.342;8.146;2022-11-02T08:07:32;15.70;97.80
780;DHT22;373;49.342;8.146;2022-11-02T08:09:59;16.10;95.90
780;DHT22;373;49.342;8.146;2022-11-02T08:12:26;16.20;94.90
780;DHT22;373;49.342;8.146;2022-11-02T08:14:53;17.00;94.80
780;DHT22;373;49.342;8.146;2022-11-02T08:17:22;17.90;91.80
780;DHT22;373;49.342;8.146;2022-11-02T08:19:50;18.50;91.50
780;DHT22;373;49.342;8.146;2022-11-02T08:22:17;19.10;89.80
780;DHT22;373;49.342;8.146;2022-11-02T08:24:44;18.90;88.90
780;DHT22;373;49.342;8.146;2022-11-02T08:27:11;18.80;89.00
780;DHT22;373;49.342;8.146;2022-11-02T08:29:38;18.40;89.40
780;DHT22;373;49.342;8.146;2022-11-02T08:32:05;18.60;90.00
780;DHT22;373;49.342;8.146;2022-11-02T08:34:33;18.80;87.20
780;DHT22;373;49.342;8.146;2022-11-02T08:37:00;18.10;88.80
780;DHT22;373;49.342;8.146;2022-11-02T08:39:27;18.30;90.20
780;DHT22;373;49.342;8.146;2022-11-02T08:41:55;17.90;90.00
780;DHT22;373;49.342;8.146;2022-11-02T08:44:22;18.80;89.00
780;DHT22;373;49.342;8.146;2022-11-02T08:46:49;19.50;86.60
780;DHT22;373;49.342;8.146;2022-11-02T08:49:16;19.60;86.60
780;DHT22;373;49.342;8.146;2022-11-02T08:51:45;19.80;82.60
780;DHT22;373;49.342;8.146;2022-11-02T08:54:12;20.00;83.80
780;DHT22;373;49.342;8.146;2022-11-02T08:56:39;21.00;82.30
780;DHT22;373;49.342;8.146;2022-11-02T08:59:07;21.80;79.90
780;DHT22;373;49.342;8.146;2022-11-02T09:01:34;21.80;77.40
780;DHT22;373;49.342;8.146;2022-11-02T09:04:01;22.60;73.30
780;DHT22;373;49.342;8.146;2022-11-02T09:06:28;23.20;73.90
780;DHT22;373;49.342;8.146;2022-11-02T09:08:57;22.00;71.60
780;DHT22;373;49.342;8.146;2022-11-02T09:11:24;22.50;71.80
780;DHT22;373;49.342;8.146;2022-11-02T09:13:51;23.70;68.50
780;DHT22;373;49.342;8.146;2022-11-02T09:16:18;23.10;67.40
780;DHT22;373;49.342;8.146;2022-11-02T09:18:45;23.80;66.70
780;DHT22;373;49.342;8.146;2022-11-02T09:21:12;25.10;64.90
780;DHT22;373;49.342;8.146;2022-11-02T09:23:39;26.10;60.60
780;DHT22;373;49.342;8.146;2022-11-02T09:26:07;26.20;57.50
780;DHT22;373;49.342;8.146;2022-11-02T09:28:34;25.20;59.10
780;DHT22;373;49.342;8.146;2022-11-02T09:31:03;25.50;57.50
780;DHT22;373;49.342;8.146;2022-11-02T09:33:30;26.20;58.20
780;DHT22;373;49.342;8.146;2022-11-02T09:36:02;26.10;57.10
780;DHT22;373;49.342;8.146;2022-11-02T09:38:30;26.60;56.90
780;DHT22;373;49.342;8.146;2022-11-02T09:41:03;26.70;55.40
780;DHT22;373;49.342;8.146;2022-11-02T09:43:41;25.10;57.40
780;DHT22;373;49.342;8.146;2022-11-02T09:46:15;25.00;57.70
780;DHT22;373;49.342;8.146;2022-11-02T09:48:46;25.30;57.10
780;DHT22;373;49.342;8.146;2022-11-02T09:51:17;26.20;55.80
780;DHT22;373;49.342;8.146;2022-11-02T09:53:52;26.30;55.60
780;DHT22;373;49.342;8.146;2022-11-02T09:56:21;26.50;55.40
780;DHT22;373;49.342;8.146;2022-11-02T09:58:55;26.20;55.60
780;DHT22;373;49.342;8.146;2022-11-02T10:01:50;27.10;55.30
780;DHT22;373;49.342;8.146;2022-11-02T10:07:32;28.60;52.90
780;DHT22;373;49.342;8.146;2022-11-02T10:10:07;28.50;50.60
780;DHT22;373;49.342;8.146;2022-11-02T10:12:44;28.70;50.20
780;DHT22;373;49.342;8.146;2022-11-02T10:15:20;29.70;49.10
780;DHT22;373;49.342;8.146;2022-11-02T10:17:52;28.70;49.10
780;DHT22;373;49.342;8.146;2022-11-02T10:20:24;28.80;47.80
780;DHT22;373;49.342;8.146;2022-11-02T10:22:58;28.70;46.70
780;DHT22;373;49.342;8.146;2022-11-02T10:25:28;26.90;48.60
780;DHT22;373;49.342;8.146;2022-11-02T10:28:00;27.00;50.20
780;DHT22;373;49.342;8.146;2022-11-02T10:30:31;26.80;50.70
780;DHT22;373;49.342;8.146;2022-11-02T10:32:58;27.30;49.80
780;DHT22;373;49.342;8.146;2022-11-02T10:35:32;26.80;49.00
780;DHT22;373;49.342;8.146;2022-11-02T10:38:12;28.00;48.30
780;DHT22;373;49.342;8.146;2022-11-02T10:41:18;28.40;47.40
780;DHT22;373;49.342;8.146;2022-11-02T10:44:22;27.50;47.90
780;DHT22;373;49.342;8.146;2022-11-02T10:47:02;27.70;48.10
780;DHT22;373;49.342;8.146;2022-11-02T10:49:54;25.70;48.20
780;DHT22;373;49.342;8.146;2022-11-02T10:52:24;25.40;51.00
780;DHT22;373;49.342;8.146;2022-11-02T10:54:52;25.70;50.80
780;DHT22;373;49.342;8.146;2022-11-02T10:57:21;25.50;50.80
780;DHT22;373;49.342;8.146;2022-11-02T11:00:23;24.70;49.60
780;DHT22;373;49.342;8.146;2022-11-02T11:03:06;23.60;52.00
780;DHT22;373;49.342;8.146;2022-11-02T11:05:37;24.00;53.00
780;DHT22;373;49.342;8.146;2022-11-02T11:08:05;24.00;52.50
780;DHT22;373;49.342;8.146;2022-11-02T11:10:36;24.90;49.90
780;DHT22;373;49.342;8.146;2022-11-02T11:13:04;24.30;49.40
780;DHT22;373;49.342;8.146;2022-11-02T11:15:33;24.40;49.80
780;DHT22;373;49.342;8.146;2022-11-02T11:18:11;25.60;50.60
780;DHT22;373;49.342;8.146;2022-11-02T11:20:40;27.40;48.50
780;DHT22;373;49.342;8.146;2022-11-02T11:23:15;27.70;46.90
780;DHT22;373;49.342;8.146;2022-11-02T11:25:53;26.40;46.80
780;DHT22;373;49.342;8.146;2022-11-02T11:28:22;25.40;49.30
780;DHT22;373;49.342;8.146;2022-11-02T11:31:10;26.20;48.80
780;DHT22;373;49.342;8.146;2022-11-02T11:33:45;26.20;48.60
780;DHT22;373;49.342;8.146;2022-11-02T11:36:21;27.50;46.70
780;DHT22;373;49.342;8.146;2022-11-02T11:38:50;27.10;45.70
780;DHT22;373;49.342;8.146;2022-11-02T11:41:18;24.90;45.90
780;DHT22;373;49.342;8.146;2022-11-02T11:43:46;22.70;48.80
780;DHT22;373;49.342;8.146;2022-11-02T11:46:15;21.70;49.60
780;DHT22;373;49.342;8.146;2022-11-02T11:48:48;22.00;51.00
780;DHT22;373;49.342;8.146;2022-11-02T11:51:35;22.60;50.70
780;DHT22;373;49.342;8.146;2022-11-02T11:54:16;22.10;51.60
780;DHT22;373;49.342;8.146;2022-11-02T11:56:44;22.20;51.80
780;DHT22;373;49.342;8.146;2022-11-02T11:59:24;21.40;53.00
780;DHT22;373;49.342;8.146;2022-11-02T12:01:57;20.80;53.50
780;DHT22;373;49.342;8.146;2022-11-02T12:04:44;20.70;54.60
780;DHT22;373;49.342;8.146;2022-11-02T12:07:30;20.40;54.70
780;DHT22;373;49.342;8.146;2022-11-02T12:10:06;20.30;54.70
780;DHT22;373;49.342;8.146;2022-11-02T12:12:54;19.20;56.80
780;DHT22;373;49.342;8.146;2022-11-02T12:15:41;18.50;57.50
780;DHT22;373;49.342;8.146;2022-11-02T12:18:37;18.80;59.50
780;DHT22;373;49.342;8.146;2022-11-02T12:21:18;19.00;59.80
780;DHT22;373;49.342;8.146;2022-11-02T12:24:15;18.70;59.20
780;DHT22;373;49.342;8.146;2022-11-02T12:26:58;18.60;59.10
780;DHT22;373;49.342;8.146;2022-11-02T12:29:47;18.90;61.00
780;DHT22;373;49.342;8.146;2022-11-02T12:32:30;18.90;59.50
780;DHT22;373;49.342;8.146;2022-11-02T12:35:31;19.30;59.60
780;DHT22;373;49.342;8.146;2022-11-02T12:38:23;19.40;59.00
780;DHT22;373;49.342;8.146;2022-11-02T12:41:00;18.80;58.70
780;DHT22;373;49.342;8.146;2022-11-02T12:43:38;18.60;59.10
780;DHT22;373;49.342;8.146;2022-11-02T12:46:15;18.80;60.10
780;DHT22;373;49.342;8.146;2022-11-02T12:48:52;19.20;60.10
780;DHT22;373;49.342;8.146;2022-11-02T12:51:26;19.10;59.40
780;DHT22;373;49.342;8.146;2022-11-02T12:53:58;18.80;59.60
780;DHT22;373;49.342;8.146;2022-11-02T12:56:33;18.70;60.00
780;DHT22;373;49.342;8.146;2022-11-02T12:59:00;18.10;61.00
780;DHT22;373;49.342;8.146;2022-11-02T13:01:30;17.50;62.90
780;DHT22;373;49.342;8.146;2022-11-02T13:04:07;17.80;63.80
780;DHT22;373;49.342;8.146;2022-11-02T13:06:38;18.30;63.70
780;DHT22;373;49.342;8.146;2022-11-02T13:09:11;18.00;60.70
780;DHT22;373;49.342;8.146;2022-11-02T13:11:41;18.10;62.00
780;DHT22;373;49.342;8.146;2022-11-02T13:14:13;18.20;62.80
780;DHT22;373;49.342;8.146;2022-11-02T13:16:46;18.50;62.60
780;DHT22;373;49.342;8.146;2022-11-02T13:19:18;18.40;61.70
780;DHT22;373;49.342;8.146;2022-11-02T13:21:49;18.60;60.70
780;DHT22;373;49.342;8.146;2022-11-02T13:24:22;18.30;58.80
780;DHT22;373;49.342;8.146;2022-11-02T13:26:51;17.90;59.70
780;DHT22;373;49.342;8.146;2022-11-02T13:29:22;17.70;59.80
780;DHT22;373;49.342;8.146;2022-11-02T13:31:55;17.70;59.90
780;DHT22;373;49.342;8.146;2022-11-02T13:34:30;17.80;59.60
780;DHT22;373;49.342;8.146;2022-11-02T13:37:03;17.80;59.10
780;DHT22;373;49.342;8.146;2022-11-02T13:39:36;17.60;58.60
780;DHT22;373;49.342;8.146;2022-11-02T13:45:31;17.60;59.80
780;DHT22;373;49.342;8.146;2022-11-02T13:48:27;17.50;61.20
780;DHT22;373;49.342;8.146;2022-11-02T13:51:03;17.50;62.30
780;DHT22;373;49.342;8.146;2022-11-02T13:53:35;17.80;62.10
780;DHT22;373;49.342;8.146;2022-11-02T13:56:08;17.70;60.60
780;DHT22;373;49.342;8.146;2022-11-02T13:58:37;17.70;61.50
780;DHT22;373;49.342;8.146;2022-11-02T14:01:09;17.80;60.40
780;DHT22;373;49.342;8.146;2022-11-02T14:03:47;17.60;60.20
780;DHT22;373;49.342;8.146;2022-11-02T14:06:16;17.20;59.80
780;DHT22;373;49.342;8.146;2022-11-02T14:08:48;17.10;59.80
780;DHT22;373;49.342;8.146;2022-11-02T14:11:27;17.10;61.00
780;DHT22;373;49.342;8.146;2022-11-02T14:14:28;17.00;61.70
780;DHT22;373;49.342;8.146;2022-11-02T14:16:58;17.20;63.20
780;DHT22;373;49.342;8.146;2022-11-02T14:19:30;17.20;62.70
780;DHT22;373;49.342;8.146;2022-11-02T14:22:12;17.20;62.20
780;DHT22;373;49.342;8.146;2022-11-02T14:25:08;16.90;62.90
780;DHT22;373;49.342;8.146;2022-11-02T14:27:41;17.10;63.70
780;DHT22;373;49.342;8.146;2022-11-02T14:30:41;17.10;63.10
780;DHT22;373;49.342;8.146;2022-11-02T14:33:55;17.20;63.90
780;DHT22;373;49.342;8.146;2022-11-02T14:36:45;17.30;63.30
780;DHT22;373;49.342;8.146;2022-11-02T14:39:22;17.40;64.20
780;DHT22;373;49.342;8.146;2022-11-02T14:42:10;17.00;63.10
780;DHT22;373;49.342;8.146;2022-11-02T14:45:07;17.10;64.60
780;DHT22;373;49.342;8.146;2022-11-02T14:47:38;17.10;64.60
780;DHT22;373;49.342;8.146;2022-11-02T14:50:12;17.10;64.20
780;DHT22;373;49.342;8.146;2022-11-02T14:52:41;16.90;65.30
780;DHT22;373;49.342;8.146;2022-11-02T14:55:22;16.80;65.60
780;DHT22;373;49.342;8.146;2022-11-02T14:57:53;16.50;66.10
780;DHT22;373;49.342;8.146;2022-11-02T15:00:29;16.50;66.90
780;DHT22;373;49.342;8.146;2022-11-02T15:02:57;16.50;66.50
780;DHT22;373;49.342;8.146;2022-11-02T15:05:28;16.60;67.70
780;DHT22;373;49.342;8.146;2022-11-02T15:07:59;16.70;66.70
780;DHT22;373;49.342;8.146;2022-11-02T15:10:36;16.70;68.00
780;DHT22;373;49.342;8.146;2022-11-02T15:13:33;16.70;67.60
780;DHT22;373;49.342;8.146;2022-11-02T15:16:38;16.80;68.30
780;DHT22;373;49.342;8.146;2022-11-02T15:19:35;16.80;68.90
780;DHT22;373;49.342;8.146;2022-11-02T15:25:09;17.10;70.20
780;DHT22;373;49.342;8.146;2022-11-02T15:27:40;17.10;68.80
780;DHT22;373;49.342;8.146;2022-11-02T15:30:12;17.20;70.10
780;DHT22;373;49.342;8.146;2022-11-02T15:32:46;17.10;70.10
780;DHT22;373;49.342;8.146;2022-11-02T15:35:17;17.30;70.20
780;DHT22;373;49.342;8.146;2022-11-02T15:37:47;17.40;70.10
780;DHT22;373;49.342;8.146;2022-11-02T15:40:20;17.40;70.80
780;DHT22;373;49.342;8.146;2022-11-02T15:42:56;17.40;70.90
780;DHT22;373;49.342;8.146;2022-11-02T15:45:39;17.30;71.60
780;DHT22;373;49.342;8.146;2022-11-02T15:48:24;16.80;73.50
780;DHT22;373;49.342;8.146;2022-11-02T15:50:57;16.80;75.10
780;DHT22;373;49.342;8.146;2022-11-02T15:53:41;16.60;76.70
780;DHT22;373;49.342;8.146;2022-11-02T15:56:34;16.50;79.70
780;DHT22;373;49.342;8.146;2022-11-02T15:59:18;16.80;77.60
780;DHT22;373;49.342;8.146;2022-11-02T16:02:01;16.70;78.20
780;DHT22;373;49.342;8.146;2022-11-02T16:04:35;16.60;80.00
780;DHT22;373;49.342;8.146;2022-11-02T16:07:03;16.40;82.70
780;DHT22;373;49.342;8.146;2022-11-02T16:09:34;16.20;83.90
780;DHT22;373;49.342;8.146;2022-11-02T16:12:07;16.20;85.00
780;DHT22;373;49.342;8.146;2022-11-02T16:14:34;15.70;87.20
780;DHT22;373;49.342;8.146;2022-11-02T16:17:02;15.70;89.60
780;DHT22;373;49.342;8.146;2022-11-02T16:19:29;15.90;87.70
780;DHT22;373;49.342;8.146;2022-11-02T16:21:58;15.70;87.40
780;DHT22;373;49.342;8.146;2022-11-02T16:24:25;15.60;88.00
780;DHT22;373;49.342;8.146;2022-11-02T16:26:52;15.60;87.70
780;DHT22;373;49.342;8.146;2022-11-02T16:29:29;15.60;87.10
780;DHT22;373;49.342;8.146;2022-11-02T16:31:57;16.00;87.10
780;DHT22;373;49.342;8.146;2022-11-02T16:34:27;15.80;86.60
780;DHT22;373;49.342;8.146;2022-11-02T16:36:55;15.40;88.40
780;DHT22;373;49.342;8.146;2022-11-02T16:39:26;15.20;90.00
780;DHT22;373;49.342;8.146;2022-11-02T16:41:57;15.10;90.60
780;DHT22;373;49.342;8.146;2022-11-02T16:44:26;15.40;89.60
780;DHT22;373;49.342;8.146;2022-11-02T16:46:58;15.20;90.50
780;DHT22;373;49.342;8.146;2022-11-02T16:49:27;14.60;91.60
780;DHT22;373;49.342;8.146;2022-11-02T16:51:56;14.50;93.20
780;DHT22;373;49.342;8.146;2022-11-02T16:54:36;14.60;93.00
780;DHT22;373;49.342;8.146;2022-11-02T16:57:13;14.70;92.20
780;DHT22;373;49.342;8.146;2022-11-02T16:59:50;14.30;92.50
780;DHT22;373;49.342;8.146;2022-11-02T17:02:26;13.70;94.30
780;DHT22;373;49.342;8.146;2022-11-02T17:04:56;13.50;95.50
780;DHT22;373;49.342;8.146;2022-11-02T17:07:28;13.40;96.00
780;DHT22;373;49.342;8.146;2022-11-02T17:09:59;13.60;96.60
780;DHT22;373;49.342;8.146;2022-11-02T17:12:32;13.50;96.50
780;DHT22;373;49.342;8.146;2022-11-02T17:15:01;13.80;95.90
780;DHT22;373;49.342;8.146;2022-11-02T17:17:36;13.60;96.70
780;DHT22;373;49.342;8.146;2022-11-02T17:20:16;13.80;95.60
780;DHT22;373;49.342;8.146;2022-11-02T17:22:56;13.50;95.60
780;DHT22;373;49.342;8.146;2022-11-02T17:25:26;13.00;96.90